createdAt,value
2017-05-17T00:00:10.640Z,39.74
2017-05-17T00:01:10.331Z,39.84
2017-05-17T00:02:10.655Z,39.84
2017-05-17T00:03:10.354Z,39.84
2017-05-17T00:04:10.667Z,39.84
2017-05-17T00:05:10.363Z,39.84
2017-05-17T00:06:10.682Z,39.84
2017-05-17T00:07:10.694Z,39.74
2017-05-17T00:08:10.385Z,39.84
2017-05-17T00:09:10.708Z,39.84
2017-05-17T00:10:10.405Z,39.84
2017-05-17T00:11:10.724Z,40.03
2017-05-17T00:12:10.733Z,39.84
2017-05-17T00:13:10.428Z,39.84
2017-05-17T00:14:10.747Z,39.84
2017-05-17T00:15:10.442Z,39.64
2017-05-17T00:16:10.759Z,39.64
2017-05-17T00:17:10.459Z,39.84
2017-05-17T00:18:10.827Z,39.84
2017-05-17T00:19:10.792Z,39.84
2017-05-17T00:20:10.489Z,39.64
2017-05-17T00:21:10.801Z,39.74
2017-05-17T00:22:10.808Z,40.03
2017-05-17T00:23:10.820Z,39.84
2017-05-17T00:24:10.563Z,39.74
2017-05-17T00:25:10.834Z,39.64
2017-05-17T00:26:10.530Z,39.84
2017-05-17T00:27:10.851Z,39.64
2017-05-17T00:28:10.860Z,39.74
2017-05-17T00:29:10.867Z,39.64
2017-05-17T00:30:10.661Z,39.64
2017-05-17T00:31:10.878Z,39.64
2017-05-17T00:32:10.890Z,39.74
2017-05-17T00:33:10.895Z,39.64
2017-05-17T00:34:10.903Z,39.64
2017-05-17T00:35:10.914Z,39.64
2017-05-17T00:36:10.969Z,39.64
2017-05-17T00:37:10.928Z,39.55
2017-05-17T00:38:10.941Z,39.55
2017-05-17T00:39:10.942Z,39.84
2017-05-17T00:40:10.642Z,39.64
2017-05-17T00:41:10.959Z,39.64
2017-05-17T00:42:10.967Z,39.74
2017-05-17T00:43:10.763Z,39.74
2017-05-17T00:44:10.722Z,39.74
2017-05-17T00:45:10.989Z,39.84
2017-05-17T00:46:11.002Z,39.84
2017-05-17T00:47:10.695Z,40.03
2017-05-17T00:48:11.014Z,40.03
2017-05-17T00:49:10.710Z,39.74
2017-05-17T00:50:10.720Z,40.13
2017-05-17T00:51:11.040Z,39.84
2017-05-17T00:52:11.050Z,39.74
2017-05-17T00:53:11.053Z,39.84
2017-05-17T00:54:11.062Z,39.64
2017-05-17T00:55:11.070Z,39.94
2017-05-17T00:56:10.765Z,39.94
2017-05-17T00:57:10.823Z,39.84
2017-05-17T00:58:10.783Z,39.74
2017-05-17T00:59:11.102Z,39.64
2017-05-17T01:00:11.108Z,39.55
2017-05-17T01:01:11.116Z,39.74
2017-05-17T01:02:11.126Z,39.74
2017-05-17T01:03:10.825Z,39.74
2017-05-17T01:04:11.139Z,39.64
2017-05-17T01:05:11.148Z,39.74
2017-05-17T01:06:11.157Z,39.84
2017-05-17T01:07:11.215Z,39.74
2017-05-17T01:08:11.178Z,39.64
2017-05-17T01:09:11.179Z,39.74
2017-05-17T01:10:11.187Z,39.74
2017-05-17T01:11:11.195Z,39.84
2017-05-17T01:12:11.256Z,39.84
2017-05-17T01:13:11.212Z,39.64
2017-05-17T01:14:11.220Z,39.55
2017-05-17T01:15:10.919Z,39.64
2017-05-17T01:16:11.237Z,39.74
2017-05-17T01:17:11.245Z,39.74
2017-05-17T01:18:11.250Z,39.74
2017-05-17T01:19:11.312Z,39.94
2017-05-17T01:20:11.268Z,39.64
2017-05-17T01:21:11.273Z,39.64
2017-05-17T01:22:10.972Z,39.45
2017-05-17T01:23:10.985Z,39.55
2017-05-17T01:24:11.300Z,39.74
2017-05-17T01:25:11.355Z,39.64
2017-05-17T01:26:11.318Z,39.45
2017-05-17T01:27:11.373Z,39.74
2017-05-17T01:28:11.379Z,39.74
2017-05-17T01:29:11.340Z,39.55
2017-05-17T01:30:11.036Z,39.74
2017-05-17T01:31:11.354Z,39.55
2017-05-17T01:32:11.052Z,39.45
2017-05-17T01:33:11.377Z,39.55
2017-05-17T01:34:11.379Z,39.64
2017-05-17T01:35:11.385Z,39.84
2017-05-17T01:36:11.080Z,39.64
2017-05-17T01:37:11.401Z,39.74
2017-05-17T01:38:11.413Z,39.74
2017-05-17T01:39:11.419Z,39.74
2017-05-17T01:40:11.427Z,39.64
2017-05-17T01:41:11.122Z,39.84
2017-05-17T01:42:11.129Z,39.84
2017-05-17T01:43:11.449Z,39.74
2017-05-17T01:44:11.461Z,39.64
2017-05-17T01:45:11.470Z,39.55
2017-05-17T01:46:11.216Z,39.55
2017-05-17T01:47:11.484Z,39.64
2017-05-17T01:48:11.550Z,39.74
2017-05-17T01:49:11.493Z,39.84
2017-05-17T01:50:11.503Z,39.64
2017-05-17T01:51:11.564Z,39.64
2017-05-17T01:52:11.210Z,39.64
2017-05-17T01:53:11.578Z,39.45
2017-05-17T01:54:11.536Z,39.64
2017-05-17T01:55:11.544Z,39.84
2017-05-17T01:56:11.652Z,39.64
2017-05-17T01:57:11.560Z,39.64
2017-05-17T01:58:11.567Z,39.64
2017-05-17T01:59:11.573Z,39.84
2017-05-17T02:00:11.273Z,39.45
2017-05-17T02:01:11.588Z,39.55
2017-05-17T02:02:11.288Z,39.45
2017-05-17T02:03:11.296Z,39.55
2017-05-17T02:04:11.617Z,39.64
2017-05-17T02:05:11.627Z,39.55
2017-05-17T02:06:11.321Z,39.26
2017-05-17T02:07:11.639Z,39.26
2017-05-17T02:08:11.695Z,39.26
2017-05-17T02:09:11.654Z,39.36
2017-05-17T02:10:11.664Z,39.55
2017-05-17T02:11:11.679Z,39.45
2017-05-17T02:12:11.675Z,39.45
2017-05-17T02:13:11.686Z,39.64
2017-05-17T02:14:11.694Z,39.64
2017-05-17T02:15:11.708Z,39.64
2017-05-17T02:16:11.707Z,39.64
2017-05-17T02:17:11.714Z,39.55
2017-05-17T02:18:11.418Z,39.36
2017-05-17T02:19:11.733Z,39.55
2017-05-17T02:20:11.740Z,39.55
2017-05-17T02:21:11.748Z,39.55
2017-05-17T02:22:11.757Z,39.45
2017-05-17T02:23:11.817Z,39.45
2017-05-17T02:24:11.775Z,39.64
2017-05-17T02:25:11.473Z,39.55
2017-05-17T02:26:11.528Z,39.55
2017-05-17T02:27:11.796Z,39.64
2017-05-17T02:28:11.492Z,39.64
2017-05-17T02:29:11.808Z,39.55
2017-05-17T02:30:11.507Z,39.55
2017-05-17T02:31:11.514Z,39.55
2017-05-17T02:32:11.836Z,39.55
2017-05-17T02:33:11.843Z,39.55
2017-05-17T02:34:11.853Z,39.55
2017-05-17T02:35:11.859Z,39.55
2017-05-17T02:36:11.866Z,39.55
2017-05-17T02:37:11.875Z,39.55
2017-05-17T02:38:11.882Z,39.55
2017-05-17T02:39:11.581Z,39.55
2017-05-17T02:40:11.589Z,39.45
2017-05-17T02:41:11.905Z,39.74
2017-05-17T02:42:11.651Z,39.55
2017-05-17T02:43:11.922Z,39.64
2017-05-17T02:44:11.929Z,39.55
2017-05-17T02:45:11.937Z,39.74
2017-05-17T02:46:11.944Z,39.64
2017-05-17T02:47:11.956Z,39.64
2017-05-17T02:48:11.960Z,39.64
2017-05-17T02:49:12.019Z,39.64
2017-05-17T02:50:11.664Z,39.43
2017-05-17T02:51:12.036Z,39.45
2017-05-17T02:52:11.992Z,39.64
2017-05-17T02:53:12.002Z,39.64
2017-05-17T02:54:12.058Z,39.55
2017-05-17T02:55:12.067Z,39.26
2017-05-17T02:56:12.025Z,39.26
2017-05-17T02:57:12.034Z,39.36
2017-05-17T02:58:11.819Z,39.26
2017-05-17T02:59:11.737Z,39.55
2017-05-17T03:00:12.056Z,39.45
2017-05-17T03:01:12.114Z,39.45
2017-05-17T03:02:12.072Z,39.55
2017-05-17T03:03:12.079Z,39.36
2017-05-17T03:04:12.088Z,39.36
2017-05-17T03:05:12.097Z,39.55
2017-05-17T03:06:11.845Z,39.55
2017-05-17T03:07:12.111Z,39.45
2017-05-17T03:08:12.121Z,39.45
2017-05-17T03:09:12.130Z,39.45
2017-05-17T03:10:12.134Z,39.36
2017-05-17T03:11:12.144Z,39.55
2017-05-17T03:12:12.151Z,39.55
2017-05-17T03:13:11.900Z,39.55
2017-05-17T03:14:12.168Z,39.55
2017-05-17T03:15:12.226Z,39.55
2017-05-17T03:16:11.873Z,39.55
2017-05-17T03:17:12.192Z,39.64
2017-05-17T03:18:12.199Z,39.55
2017-05-17T03:19:12.259Z,39.55
2017-05-17T03:20:12.212Z,39.55
2017-05-17T03:21:12.273Z,39.55
2017-05-17T03:22:12.280Z,39.55
2017-05-17T03:23:12.239Z,39.55
2017-05-17T03:24:11.935Z,39.64
2017-05-17T03:25:12.252Z,39.62
2017-05-17T03:26:12.265Z,39.55
2017-05-17T03:27:12.270Z,39.74
2017-05-17T03:28:12.326Z,39.55
2017-05-17T03:29:12.284Z,39.55
2017-05-17T03:30:11.979Z,39.43
2017-05-17T03:31:12.350Z,39.55
2017-05-17T03:32:11.997Z,39.45
2017-05-17T03:33:12.318Z,39.55
2017-05-17T03:34:12.015Z,39.45
2017-05-17T03:35:12.331Z,39.45
2017-05-17T03:36:12.342Z,39.45
2017-05-17T03:37:12.348Z,39.55
2017-05-17T03:38:12.357Z,39.36
2017-05-17T03:39:12.363Z,39.64
2017-05-17T03:40:12.061Z,39.16
2017-05-17T03:41:12.429Z,39.55
2017-05-17T03:42:12.386Z,39.26
2017-05-17T03:43:12.393Z,39.36
2017-05-17T03:44:12.402Z,39.36
2017-05-17T03:45:12.414Z,39.16
2017-05-17T03:46:12.418Z,39.26
2017-05-17T03:47:12.426Z,39.26
2017-05-17T03:48:12.434Z,39.26
2017-05-17T03:49:12.493Z,39.26
2017-05-17T03:50:12.138Z,39.26
2017-05-17T03:51:12.457Z,39.06
2017-05-17T03:52:12.464Z,39.06
2017-05-17T03:53:12.165Z,39.16
2017-05-17T03:54:12.482Z,39.26
2017-05-17T03:55:12.490Z,39.36
2017-05-17T03:56:12.498Z,39.26
2017-05-17T03:57:12.505Z,39.36
2017-05-17T03:58:12.562Z,39.45
2017-05-17T03:59:12.521Z,39.45
2017-05-17T04:00:12.527Z,39.26
2017-05-17T04:01:12.224Z,39.26
2017-05-17T04:02:12.235Z,39.36
2017-05-17T04:03:12.554Z,39.26
2017-05-17T04:04:12.559Z,39.26
2017-05-17T04:05:12.567Z,39.36
2017-05-17T04:06:12.627Z,39.45
2017-05-17T04:07:12.582Z,39.26
2017-05-17T04:08:12.595Z,39.26
2017-05-17T04:09:12.599Z,39.26
2017-05-17T04:10:12.607Z,39.06
2017-05-17T04:11:12.664Z,39.16
2017-05-17T04:12:12.626Z,39.26
2017-05-17T04:13:12.631Z,39.06
2017-05-17T04:14:12.645Z,39.06
2017-05-17T04:15:12.649Z,39.06
2017-05-17T04:16:12.655Z,39.06
2017-05-17T04:17:12.350Z,39.06
2017-05-17T04:18:12.669Z,39.26
2017-05-17T04:19:12.679Z,39.06
2017-05-17T04:20:12.685Z,38.97
2017-05-17T04:21:12.695Z,39.06
2017-05-17T04:22:12.700Z,39.06
2017-05-17T04:23:12.710Z,39.16
2017-05-17T04:24:12.719Z,39.06
2017-05-17T04:25:12.413Z,39.36
2017-05-17T04:26:12.421Z,38.97
2017-05-17T04:27:12.798Z,38.97
2017-05-17T04:28:12.798Z,39.16
2017-05-17T04:29:12.760Z,39.16
2017-05-17T04:30:12.769Z,39.06
2017-05-17T04:31:12.772Z,39.06
2017-05-17T04:32:12.781Z,39.06
2017-05-17T04:33:12.833Z,39.16
2017-05-17T04:34:12.545Z,39.06
2017-05-17T04:35:12.804Z,39.16
2017-05-17T04:36:12.812Z,39.16
2017-05-17T04:37:12.822Z,39.16
2017-05-17T04:38:12.825Z,38.97
2017-05-17T04:39:12.837Z,39.16
2017-05-17T04:40:12.843Z,39.06
2017-05-17T04:41:12.852Z,39.06
2017-05-17T04:42:12.861Z,39.16
2017-05-17T04:43:12.868Z,39.16
2017-05-17T04:44:12.563Z,39.16
2017-05-17T04:45:12.882Z,38.97
2017-05-17T04:46:13.192Z,39.16
2017-05-17T04:47:12.588Z,39.16
2017-05-17T04:48:12.908Z,39.06
2017-05-17T04:49:12.913Z,39.06
2017-05-17T04:50:12.613Z,39.06
2017-05-17T04:51:12.929Z,39.16
2017-05-17T04:52:13.239Z,39.06
2017-05-17T04:53:12.946Z,39.26
2017-05-17T04:54:12.954Z,39.06
2017-05-17T04:55:12.964Z,39.16
2017-05-17T04:56:12.658Z,39.06
2017-05-17T04:57:12.982Z,39.06
2017-05-17T04:58:13.034Z,39.16
2017-05-17T04:59:12.994Z,39.16
2017-05-17T05:00:13.001Z,39.06
2017-05-17T05:01:13.008Z,39.26
2017-05-17T05:02:12.753Z,39.26
2017-05-17T05:03:13.023Z,39.36
2017-05-17T05:04:13.077Z,39.16
2017-05-17T05:05:13.040Z,39.16
2017-05-17T05:06:13.047Z,39.09
2017-05-17T05:07:13.064Z,39.06
2017-05-17T05:08:13.064Z,38.68
2017-05-17T05:09:13.117Z,38.78
2017-05-17T05:10:12.775Z,38.6
2017-05-17T05:11:13.094Z,38.78
2017-05-17T05:12:13.097Z,38.79
2017-05-17T05:13:13.104Z,38.78
2017-05-17T05:14:13.111Z,38.7
2017-05-17T05:15:13.118Z,38.79
2017-05-17T05:16:13.128Z,38.5
2017-05-17T05:17:13.135Z,38.5
2017-05-17T05:18:12.835Z,38.79
2017-05-17T05:19:13.152Z,38.5
2017-05-17T05:20:13.159Z,38.5
2017-05-17T05:21:13.167Z,38.6
2017-05-17T05:22:13.173Z,38.5
2017-05-17T05:23:13.338Z,38.5
2017-05-17T05:24:13.194Z,38.31
2017-05-17T05:25:13.200Z,38.41
2017-05-17T05:26:13.209Z,38.5
2017-05-17T05:27:13.215Z,38.21
2017-05-17T05:28:13.227Z,38.21
2017-05-17T05:29:13.230Z,38.41
2017-05-17T05:30:12.928Z,38.41
2017-05-17T05:31:13.248Z,38.41
2017-05-17T05:32:13.257Z,38.5
2017-05-17T05:33:13.565Z,38.41
2017-05-17T05:34:13.322Z,38.31
2017-05-17T05:35:13.278Z,38.31
2017-05-17T05:36:13.027Z,38.12
2017-05-17T05:37:13.032Z,38.41
2017-05-17T05:38:13.308Z,38.21
2017-05-17T05:39:13.362Z,38.31
2017-05-17T05:40:13.323Z,38.31
2017-05-17T05:41:13.017Z,38.31
2017-05-17T05:42:13.335Z,38.12
2017-05-17T05:43:13.345Z,38.02
2017-05-17T05:44:13.040Z,37.85
2017-05-17T05:45:13.364Z,37.36
2017-05-17T05:46:13.367Z,36.7
2017-05-17T05:47:13.377Z,36.32
2017-05-17T05:48:13.073Z,36.6
2017-05-17T05:49:13.083Z,35.35
2017-05-17T05:50:13.401Z,33.83
2017-05-17T05:51:13.410Z,32.62
2017-05-17T05:52:13.418Z,31.76
2017-05-17T05:53:13.121Z,31.29
2017-05-17T05:54:13.436Z,30.52
2017-05-17T05:55:13.137Z,29.57
2017-05-17T05:56:13.453Z,29.5
2017-05-17T05:57:13.464Z,29.11
2017-05-17T05:58:13.478Z,28.34
2017-05-17T05:59:13.484Z,28.16
2017-05-17T06:00:13.495Z,27.87
2017-05-17T06:01:13.502Z,27.58
2017-05-17T06:02:13.513Z,27.5
2017-05-17T06:03:13.212Z,27.01
2017-05-17T06:04:13.533Z,26.63
2017-05-17T06:05:13.549Z,26.06
2017-05-17T06:06:13.551Z,25.78
2017-05-17T06:07:13.561Z,25.78
2017-05-17T06:08:13.573Z,25.49
2017-05-17T06:09:13.585Z,24.91
2017-05-17T06:10:13.592Z,24.91
2017-05-17T06:11:13.604Z,24.82
2017-05-17T06:12:13.665Z,24.64
2017-05-17T06:13:13.629Z,24.33
2017-05-17T06:14:13.635Z,24.74
2017-05-17T06:15:13.646Z,24.54
2017-05-17T06:16:13.653Z,24.74
2017-05-17T06:17:13.716Z,24.53
2017-05-17T06:18:13.681Z,24.25
2017-05-17T06:19:13.688Z,24.44
2017-05-17T06:20:13.696Z,23.86
2017-05-17T06:21:13.762Z,23.49
2017-05-17T06:22:13.720Z,24.16
2017-05-17T06:23:13.732Z,24.54
2017-05-17T06:24:13.742Z,23.47
2017-05-17T06:25:13.756Z,23.38
2017-05-17T06:26:13.764Z,23.2
2017-05-17T06:27:13.778Z,23.11
2017-05-17T06:28:13.788Z,23.39
2017-05-17T06:29:13.852Z,23.79
2017-05-17T06:30:13.810Z,23.28
2017-05-17T06:31:13.819Z,22.91
2017-05-17T06:32:13.521Z,23.21
2017-05-17T06:33:13.894Z,22.42
2017-05-17T06:34:13.858Z,22.52
2017-05-17T06:35:13.606Z,23.7
2017-05-17T06:36:13.569Z,23.69
2017-05-17T06:37:13.581Z,24.16
2017-05-17T06:38:13.904Z,24.54
2017-05-17T06:39:13.913Z,24.25
2017-05-17T06:40:13.926Z,23.57
2017-05-17T06:41:13.936Z,22.51
2017-05-17T06:42:13.644Z,22.34
2017-05-17T06:43:14.017Z,22.53
2017-05-17T06:44:13.973Z,22.62
2017-05-17T06:45:14.033Z,22.53
2017-05-17T06:46:13.734Z,22.34
2017-05-17T06:47:14.004Z,22.24
2017-05-17T06:48:13.711Z,22.63
2017-05-17T06:49:14.085Z,22.23
2017-05-17T06:50:14.048Z,22.92
2017-05-17T06:51:14.105Z,23.39
2017-05-17T06:52:14.115Z,23.3
2017-05-17T06:53:14.081Z,22.72
2017-05-17T06:54:14.152Z,22.34
2017-05-17T06:55:14.102Z,22.44
2017-05-17T06:56:14.115Z,22.24
2017-05-17T06:57:14.124Z,22.44
2017-05-17T06:58:13.830Z,22.25
2017-05-17T06:59:14.199Z,22.64
2017-05-17T07:00:14.211Z,22.83
2017-05-17T07:01:14.178Z,23.21
2017-05-17T07:02:14.186Z,23.6
2017-05-17T07:03:13.887Z,23.21
2017-05-17T07:04:14.210Z,23.41
2017-05-17T07:05:13.910Z,23.11
2017-05-17T07:06:14.233Z,23.1
2017-05-17T07:07:14.249Z,22.33
2017-05-17T07:08:13.947Z,22.44
2017-05-17T07:09:13.960Z,22.16
2017-05-17T07:10:14.330Z,21.96
2017-05-17T07:11:14.294Z,21.86
2017-05-17T07:12:14.306Z,22.16
2017-05-17T07:13:14.319Z,21.96
2017-05-17T07:14:14.378Z,22.06
2017-05-17T07:15:14.392Z,22.16
2017-05-17T07:16:14.355Z,22.35
2017-05-17T07:17:14.367Z,21.86
2017-05-17T07:18:14.072Z,21.48
2017-05-17T07:19:14.444Z,21.88
2017-05-17T07:20:14.406Z,22.26
2017-05-17T07:21:14.466Z,22.25
2017-05-17T07:22:14.428Z,22.37
2017-05-17T07:23:14.441Z,22.46
2017-05-17T07:24:14.505Z,23.43
2017-05-17T07:25:14.466Z,23.61
2017-05-17T07:26:14.478Z,23.7
2017-05-17T07:27:14.230Z,23.43
2017-05-17T07:28:14.503Z,23.33
2017-05-17T07:29:14.521Z,25.09
2017-05-17T07:30:14.528Z,26.81
2017-05-17T07:31:14.539Z,29.69
2017-05-17T07:32:14.242Z,32.23
2017-05-17T07:33:14.559Z,33.26
2017-05-17T07:34:14.262Z,34.01
2017-05-17T07:35:14.584Z,34.67
2017-05-17T07:36:14.596Z,35.06
2017-05-17T07:37:14.605Z,35.16
2017-05-17T07:38:14.615Z,35.45
2017-05-17T07:39:14.624Z,35.74
2017-05-17T07:40:14.644Z,35.92
2017-05-17T07:41:14.692Z,35.82
2017-05-17T07:42:14.341Z,36.68
2017-05-17T07:43:14.352Z,36.68
2017-05-17T07:44:14.670Z,36.68
2017-05-17T07:45:14.728Z,37.07
2017-05-17T07:46:14.689Z,37.07
2017-05-17T07:47:14.699Z,36.87
2017-05-17T07:48:14.396Z,37.07
2017-05-17T07:49:14.716Z,37.35
2017-05-17T07:50:14.726Z,37.35
2017-05-17T07:51:14.736Z,37.24
2017-05-17T07:52:14.796Z,37.45
2017-05-17T07:53:14.804Z,37.43
2017-05-17T07:54:14.452Z,37.63
2017-05-17T07:55:14.460Z,37.53
2017-05-17T07:56:14.824Z,37.73
2017-05-17T07:57:14.790Z,37.73
2017-05-17T07:58:14.801Z,37.82
2017-05-17T07:59:14.806Z,37.92
2017-05-17T08:00:14.817Z,37.92
2017-05-17T08:01:14.825Z,38.21
2017-05-17T08:02:14.883Z,37.63
2017-05-17T08:03:14.532Z,38.02
2017-05-17T08:04:14.854Z,38.21
2017-05-17T08:05:14.858Z,38.21
2017-05-17T08:06:14.870Z,38.39
2017-05-17T08:07:14.879Z,38.6
2017-05-17T08:08:14.578Z,38.48
2017-05-17T08:09:14.587Z,38.29
2017-05-17T08:10:14.905Z,38.39
2017-05-17T08:11:14.915Z,38.68
2017-05-17T08:12:14.922Z,38.39
2017-05-17T08:13:14.622Z,38.58
2017-05-17T08:14:14.937Z,38.68
2017-05-17T08:15:14.687Z,38.87
2017-05-17T08:16:14.958Z,38.78
2017-05-17T08:17:14.964Z,38.58
2017-05-17T08:18:14.975Z,38.39
2017-05-17T08:19:14.983Z,38.58
2017-05-17T08:20:14.993Z,38.58
2017-05-17T08:21:15.005Z,38.58
2017-05-17T08:22:15.010Z,38.68
2017-05-17T08:23:15.021Z,38.58
2017-05-17T08:24:15.029Z,38.58
2017-05-17T08:25:15.039Z,38.78
2017-05-17T08:26:15.044Z,38.48
2017-05-17T08:27:15.054Z,38.78
2017-05-17T08:28:15.061Z,38.58
2017-05-17T08:29:14.760Z,38.87
2017-05-17T08:30:14.819Z,39.36
2017-05-17T08:31:15.088Z,39.34
2017-05-17T08:32:15.097Z,39.36
2017-05-17T08:33:15.107Z,39.36
2017-05-17T08:34:15.113Z,39.24
2017-05-17T08:35:15.124Z,39.43
2017-05-17T08:36:15.131Z,39.36
2017-05-17T08:37:15.141Z,39.04
2017-05-17T08:38:15.148Z,39.14
2017-05-17T08:39:14.846Z,39.34
2017-05-17T08:40:15.179Z,39.26
2017-05-17T08:41:15.174Z,39.43
2017-05-17T08:42:15.184Z,39.34
2017-05-17T08:43:14.881Z,39.53
2017-05-17T08:44:15.199Z,39.34
2017-05-17T08:45:15.207Z,39.43
2017-05-17T08:46:15.220Z,39.24
2017-05-17T08:47:15.224Z,39.43
2017-05-17T08:48:15.238Z,39.24
2017-05-17T08:49:14.933Z,39.34
2017-05-17T08:50:15.253Z,39.24
2017-05-17T08:51:15.258Z,39.24
2017-05-17T08:52:14.961Z,39.34
2017-05-17T08:53:15.328Z,39.34
2017-05-17T08:54:14.978Z,39.04
2017-05-17T08:55:15.294Z,39.34
2017-05-17T08:56:15.309Z,39.14
2017-05-17T08:57:15.316Z,38.87
2017-05-17T08:58:15.325Z,38.85
2017-05-17T08:59:15.019Z,38.76
2017-05-17T09:00:15.030Z,38.96
2017-05-17T09:01:15.346Z,38.87
2017-05-17T09:02:15.358Z,38.87
2017-05-17T09:03:15.369Z,38.78
2017-05-17T09:04:15.378Z,38.58
2017-05-17T09:05:15.385Z,38.56
2017-05-17T09:06:15.392Z,38.68
2017-05-17T09:07:15.405Z,38.56
2017-05-17T09:08:15.414Z,38.78
2017-05-17T09:09:15.419Z,38.66
2017-05-17T09:10:15.430Z,38.58
2017-05-17T09:11:15.435Z,38.48
2017-05-17T09:12:15.135Z,38.27
2017-05-17T09:13:15.145Z,38.39
2017-05-17T09:14:15.466Z,38.29
2017-05-17T09:15:15.163Z,38.39
2017-05-17T09:16:15.483Z,38.48
2017-05-17T09:17:15.490Z,38.48
2017-05-17T09:18:15.498Z,38.46
2017-05-17T09:19:15.510Z,38.46
2017-05-17T09:20:15.513Z,38.37
2017-05-17T09:21:15.263Z,38.37
2017-05-17T09:22:15.533Z,38.27
2017-05-17T09:23:15.540Z,38.39
2017-05-17T09:24:15.552Z,38.39
2017-05-17T09:25:15.609Z,38.29
2017-05-17T09:26:15.574Z,38.29
2017-05-17T09:27:15.578Z,38.46
2017-05-17T09:28:15.589Z,38.27
2017-05-17T09:29:15.282Z,38.17
2017-05-17T09:30:15.600Z,38.56
2017-05-17T09:31:15.298Z,38.27
2017-05-17T09:32:15.619Z,37.59
2017-05-17T09:33:15.632Z,38.46
2017-05-17T09:34:15.645Z,38.07
2017-05-17T09:35:15.332Z,37.88
2017-05-17T09:36:15.342Z,37.88
2017-05-17T09:37:15.664Z,37.98
2017-05-17T09:38:15.673Z,37.98
2017-05-17T09:39:15.681Z,37.88
2017-05-17T09:40:15.689Z,37.79
2017-05-17T09:41:15.724Z,37.79
2017-05-17T09:42:15.713Z,37.98
2017-05-17T09:43:15.714Z,37.79
2017-05-17T09:44:15.724Z,37.69
2017-05-17T09:45:15.733Z,38.07
2017-05-17T09:46:15.740Z,37.21
2017-05-17T09:47:15.442Z,37.88
2017-05-17T09:48:15.450Z,37.59
2017-05-17T09:49:15.770Z,37.11
2017-05-17T09:50:15.465Z,37.88
2017-05-17T09:51:15.786Z,37.49
2017-05-17T09:52:15.532Z,37.3
2017-05-17T09:53:15.806Z,37.4
2017-05-17T09:54:15.811Z,37.21
2017-05-17T09:55:15.821Z,37.4
2017-05-17T09:56:15.520Z,37.4
2017-05-17T09:57:15.840Z,37.21
2017-05-17T09:58:15.845Z,37.4
2017-05-17T09:59:15.908Z,37.21
2017-05-17T10:00:15.867Z,37.11
2017-05-17T10:01:15.877Z,37.21
2017-05-17T10:02:15.880Z,36.52
2017-05-17T10:03:15.889Z,37.01
2017-05-17T10:04:15.894Z,37.3
2017-05-17T10:05:15.904Z,37.21
2017-05-17T10:06:15.962Z,37.21
2017-05-17T10:07:15.608Z,37.21
2017-05-17T10:08:15.620Z,37.21
2017-05-17T10:09:15.670Z,36.91
2017-05-17T10:10:15.947Z,37.4
2017-05-17T10:11:15.692Z,37.11
2017-05-17T10:12:15.654Z,37.21
2017-05-17T10:13:15.665Z,36.52
2017-05-17T10:14:15.978Z,36.72
2017-05-17T10:15:15.678Z,36.82
2017-05-17T10:16:16.046Z,37.01
2017-05-17T10:17:16.006Z,36.91
2017-05-17T10:18:16.014Z,37.03
2017-05-17T10:19:16.094Z,37.01
2017-05-17T10:20:16.033Z,36.72
2017-05-17T10:21:15.729Z,37.01
2017-05-17T10:22:16.048Z,37.01
2017-05-17T10:23:16.058Z,37.01
2017-05-17T10:24:16.070Z,36.91
2017-05-17T10:25:15.762Z,36.83
2017-05-17T10:26:15.774Z,36.91
2017-05-17T10:27:16.093Z,37.01
2017-05-17T10:28:16.100Z,37.01
2017-05-17T10:29:16.110Z,37.3
2017-05-17T10:30:16.118Z,37.01
2017-05-17T10:31:16.176Z,37.4
2017-05-17T10:32:15.822Z,37.3
2017-05-17T10:33:15.839Z,37.4
2017-05-17T10:34:16.151Z,37.3
2017-05-17T10:35:15.850Z,37.4
2017-05-17T10:36:16.168Z,37.4
2017-05-17T10:37:15.864Z,37.3
2017-05-17T10:38:16.189Z,37.49
2017-05-17T10:39:15.883Z,37.3
2017-05-17T10:40:16.204Z,37.3
2017-05-17T10:41:15.900Z,37.69
2017-05-17T10:42:15.961Z,37.49
2017-05-17T10:43:16.279Z,37.48
2017-05-17T10:44:16.237Z,37.21
2017-05-17T10:45:16.247Z,37.69
2017-05-17T10:46:16.257Z,37.3
2017-05-17T10:47:16.266Z,37.49
2017-05-17T10:48:16.277Z,37.4
2017-05-17T10:49:16.283Z,37.21
2017-05-17T10:50:15.980Z,37.01
2017-05-17T10:51:16.297Z,37.4
2017-05-17T10:52:16.044Z,37.3
2017-05-17T10:53:16.005Z,37.4
2017-05-17T10:54:16.374Z,37.49
2017-05-17T10:55:16.021Z,37.01
2017-05-17T10:56:16.030Z,37.3
2017-05-17T10:57:16.038Z,37.3
2017-05-17T10:58:16.046Z,37.21
2017-05-17T10:59:16.370Z,36.82
2017-05-17T11:00:16.380Z,36.91
2017-05-17T11:01:16.391Z,36.62
2017-05-17T11:02:16.396Z,36.91
2017-05-17T11:03:16.402Z,37.11
2017-05-17T11:04:16.101Z,37.21
2017-05-17T11:05:16.106Z,36.91
2017-05-17T11:06:16.426Z,37.11
2017-05-17T11:07:16.129Z,36.82
2017-05-17T11:08:16.446Z,36.52
2017-05-17T11:09:16.455Z,36.62
2017-05-17T11:10:16.150Z,36.43
2017-05-17T11:11:16.473Z,36.72
2017-05-17T11:12:16.529Z,36.52
2017-05-17T11:13:16.490Z,36.72
2017-05-17T11:14:16.236Z,36.52
2017-05-17T11:15:16.504Z,36.52
2017-05-17T11:16:16.519Z,36.52
2017-05-17T11:17:16.262Z,36.62
2017-05-17T11:18:16.222Z,36.52
2017-05-17T11:19:16.542Z,36.04
2017-05-17T11:20:16.551Z,36.62
2017-05-17T11:21:16.609Z,36.43
2017-05-17T11:22:16.257Z,36.6
2017-05-17T11:23:16.315Z,36.52
2017-05-17T11:24:16.590Z,36.52
2017-05-17T11:25:16.330Z,36.51
2017-05-17T11:26:16.290Z,36.51
2017-05-17T11:27:16.351Z,36.82
2017-05-17T11:28:16.616Z,36.91
2017-05-17T11:29:16.625Z,36.43
2017-05-17T11:30:16.636Z,36.52
2017-05-17T11:31:16.333Z,36.52
2017-05-17T11:32:16.651Z,36.72
2017-05-17T11:33:16.662Z,36.72
2017-05-17T11:34:16.457Z,36.52
2017-05-17T11:35:16.680Z,36.82
2017-05-17T11:36:16.376Z,36.52
2017-05-17T11:37:16.746Z,36.91
2017-05-17T11:38:16.705Z,36.91
2017-05-17T11:39:16.718Z,36.91
2017-05-17T11:40:16.459Z,36.82
2017-05-17T11:41:16.734Z,36.82
2017-05-17T11:42:16.740Z,36.62
2017-05-17T11:43:16.440Z,36.91
2017-05-17T11:44:16.755Z,36.33
2017-05-17T11:45:16.502Z,36.6
2017-05-17T11:46:16.774Z,36.62
2017-05-17T11:47:16.531Z,36.82
2017-05-17T11:48:16.481Z,36.91
2017-05-17T11:49:16.489Z,36.82
2017-05-17T11:50:16.546Z,36.62
2017-05-17T11:51:16.870Z,36.72
2017-05-17T11:52:16.520Z,36.52
2017-05-17T11:53:16.840Z,36.43
2017-05-17T11:54:16.581Z,36.24
2017-05-17T11:55:16.540Z,36.52
2017-05-17T11:56:16.860Z,36.52
2017-05-17T11:57:16.557Z,36.33
2017-05-17T11:58:16.579Z,36.43
2017-05-17T11:59:16.890Z,36.52
2017-05-17T12:00:16.634Z,36.52
2017-05-17T12:01:16.954Z,36.52
2017-05-17T12:02:16.601Z,36.52
2017-05-17T12:03:16.922Z,36.14
2017-05-17T12:04:16.619Z,36.24
2017-05-17T12:05:16.941Z,36.04
2017-05-17T12:06:16.687Z,35.94
2017-05-17T12:07:16.645Z,36.04
2017-05-17T12:08:16.966Z,36.14
2017-05-17T12:09:16.662Z,36.14
2017-05-17T12:10:16.985Z,36.52
2017-05-17T12:11:16.991Z,36.43
2017-05-17T12:12:16.999Z,36.62
2017-05-17T12:13:16.697Z,36.52
2017-05-17T12:14:17.019Z,36.54
2017-05-17T12:15:17.026Z,36.83
2017-05-17T12:16:17.034Z,36.82
2017-05-17T12:17:17.044Z,36.91
2017-05-17T12:18:16.744Z,36.82
2017-05-17T12:19:16.849Z,37.41
2017-05-17T12:20:17.070Z,37.32
2017-05-17T12:21:17.082Z,37.41
2017-05-17T12:22:16.777Z,37.79
2017-05-17T12:23:17.099Z,37.71
2017-05-17T12:24:16.799Z,37.9
2017-05-17T12:25:17.219Z,37.88
2017-05-17T12:26:16.811Z,38.09
2017-05-17T12:27:17.132Z,37.9
2017-05-17T12:28:17.141Z,37.69
2017-05-17T12:29:16.891Z,37.98
2017-05-17T12:30:16.848Z,37.98
2017-05-17T12:31:17.169Z,38.09
2017-05-17T12:32:17.181Z,38.29
2017-05-17T12:33:17.243Z,38.27
2017-05-17T12:34:17.205Z,38.48
2017-05-17T12:35:16.944Z,38.27
2017-05-17T12:36:17.223Z,38.19
2017-05-17T12:37:17.524Z,38.48
2017-05-17T12:38:17.228Z,38.27
2017-05-17T12:39:16.930Z,38.37
2017-05-17T12:40:17.247Z,38.46
2017-05-17T12:41:17.305Z,38.56
2017-05-17T12:42:17.267Z,38.56
2017-05-17T12:43:17.325Z,38.66
2017-05-17T12:44:17.282Z,38.37
2017-05-17T12:45:17.290Z,38.66
2017-05-17T12:46:16.989Z,38.46
2017-05-17T12:47:17.047Z,38.37
2017-05-17T12:48:17.318Z,38.46
2017-05-17T12:49:17.016Z,38.27
2017-05-17T12:50:17.335Z,38.37
2017-05-17T12:51:17.032Z,37.98
2017-05-17T12:52:17.358Z,38.37
2017-05-17T12:53:17.101Z,38.27
2017-05-17T12:54:17.371Z,38.27